createdAt,value
2022-12-31T00:01:15.668Z,87.21
2022-12-31T00:03:44.789Z,87.20
2022-12-31T00:06:25.582Z,87.22
2022-12-31T00:08:56.559Z,87.19
2022-12-31T00:11:26.759Z,87.18
2022-12-31T00:13:55.448Z,87.25
2022-12-31T00:16:32.881Z,87.28
2022-12-31T00:19:01.109Z,87.30
2022-12-31T00:21:31.654Z,87.30
2022-12-31T00:24:00.151Z,87.33
2022-12-31T00:26:31.262Z,87.32
2022-12-31T00:29:01.258Z,87.20
2022-12-31T00:31:35.836Z,87.29
2022-12-31T00:34:05.394Z,87.31
2022-12-31T00:36:37.815Z,87.31
2022-12-31T00:39:08.348Z,87.38
2022-12-31T00:41:36.234Z,87.42
2022-12-31T00:44:04.602Z,87.34
2022-12-31T00:46:32.420Z,87.30
2022-12-31T00:49:00.194Z,87.24
2022-12-31T00:51:28.878Z,87.28
2022-12-31T00:53:58.127Z,87.28
2022-12-31T00:56:30.829Z,87.34
2022-12-31T00:59:00.247Z,87.35
2022-12-31T01:01:32.763Z,87.39
2022-12-31T01:04:09.386Z,87.38
2022-12-31T01:06:39.063Z,87.42
2022-12-31T01:09:08.400Z,87.50
2022-12-31T01:11:36.407Z,87.56
2022-12-31T01:14:13.403Z,87.59
2022-12-31T01:16:45.843Z,87.59
2022-12-31T01:19:22.491Z,87.68
2022-12-31T01:21:51.887Z,87.77
2022-12-31T01:24:20.101Z,87.80
2022-12-31T01:26:48.430Z,87.84
2022-12-31T01:29:16.975Z,87.95
2022-12-31T01:31:44.828Z,87.90
2022-12-31T01:34:12.832Z,88.01
2022-12-31T01:36:40.992Z,88.19
2022-12-31T01:39:10.707Z,88.24
2022-12-31T01:41:45.489Z,88.45
2022-12-31T01:44:13.191Z,88.61
2022-12-31T01:46:59.305Z,88.63
2022-12-31T01:49:41.152Z,88.77
2022-12-31T01:52:21.066Z,88.92
2022-12-31T01:55:16.742Z,89.05
2022-12-31T01:57:48.423Z,89.09
2022-12-31T02:00:16.977Z,89.13
2022-12-31T02:02:45.893Z,89.03
2022-12-31T02:05:29.173Z,88.98
2022-12-31T02:07:58.786Z,88.92
2022-12-31T02:10:26.588Z,88.92
2022-12-31T02:12:54.707Z,88.99
2022-12-31T02:15:39.678Z,89.07
2022-12-31T02:18:29.573Z,89.04
2022-12-31T02:21:50.837Z,89.13
2022-12-31T02:24:36.917Z,89.07
2022-12-31T02:27:31.875Z,89.10
2022-12-31T02:30:08.701Z,89.09
2022-12-31T02:32:49.901Z,89.04
2022-12-31T02:35:29.136Z,89.12
2022-12-31T02:38:10.386Z,89.07
2022-12-31T02:40:39.405Z,89.10
2022-12-31T02:43:07.248Z,89.14
2022-12-31T02:45:46.022Z,89.14
2022-12-31T02:48:51.875Z,89.10
2022-12-31T02:52:01.519Z,89.19
2022-12-31T02:55:24.903Z,89.14
2022-12-31T02:58:58.447Z,89.28
2022-12-31T03:01:57.738Z,89.47
2022-12-31T03:04:34.026Z,89.51
2022-12-31T03:07:09.943Z,89.78
2022-12-31T03:09:39.106Z,89.87
2022-12-31T03:12:29.218Z,89.92
2022-12-31T03:14:57.600Z,89.99
2022-12-31T03:17:26.143Z,90.03
2022-12-31T03:20:12.306Z,90.03
2022-12-31T03:22:43.403Z,90.05
2022-12-31T03:25:35.695Z,90.27
2022-12-31T03:28:15.792Z,90.34
2022-12-31T03:30:47.981Z,90.35
2022-12-31T03:33:16.699Z,90.44
2022-12-31T03:35:46.790Z,90.51
2022-12-31T03:38:16.105Z,90.52
2022-12-31T03:40:50.816Z,90.50
2022-12-31T03:43:20.632Z,90.50
2022-12-31T03:45:51.672Z,90.55
2022-12-31T03:48:23.555Z,90.53
2022-12-31T03:50:52.264Z,90.47
2022-12-31T03:53:20.094Z,90.44
2022-12-31T03:55:55.132Z,90.47
2022-12-31T03:58:23.187Z,90.45
2022-12-31T04:00:51.071Z,90.48
2022-12-31T04:03:18.915Z,90.45
2022-12-31T04:05:54.303Z,90.49
2022-12-31T04:08:22.188Z,90.69
2022-12-31T04:10:50.189Z,90.74
2022-12-31T04:13:18.109Z,90.77
2022-12-31T04:15:45.793Z,90.91
2022-12-31T04:18:13.581Z,91.07
2022-12-31T04:20:41.243Z,91.12
2022-12-31T04:23:08.948Z,91.20
2022-12-31T04:25:36.641Z,91.13
2022-12-31T04:28:04.571Z,91.41
2022-12-31T04:30:32.512Z,91.37
2022-12-31T04:33:00.238Z,91.25
2022-12-31T04:35:27.950Z,91.31
2022-12-31T04:37:55.975Z,91.33
2022-12-31T04:40:23.682Z,91.48
2022-12-31T04:42:51.479Z,91.53
2022-12-31T04:45:19.172Z,91.67
2022-12-31T04:47:46.882Z,91.68
2022-12-31T04:50:14.634Z,91.84
2022-12-31T04:52:43.078Z,91.86
2022-12-31T04:55:11.403Z,91.95
2022-12-31T04:57:41.173Z,92.03
2022-12-31T05:00:09.669Z,92.18
2022-12-31T05:02:37.653Z,92.19
2022-12-31T05:05:06.141Z,92.13
2022-12-31T05:07:33.838Z,92.32
2022-12-31T05:10:01.591Z,92.17
2022-12-31T05:12:29.322Z,92.24
2022-12-31T05:14:57.036Z,92.30
2022-12-31T05:17:24.707Z,92.19
2022-12-31T05:19:52.421Z,92.07
2022-12-31T05:22:29.109Z,92.09
2022-12-31T05:25:00.836Z,92.12
2022-12-31T05:27:31.136Z,92.16
2022-12-31T05:30:00.062Z,92.13
2022-12-31T05:32:28.123Z,91.97
2022-12-31T05:34:57.657Z,91.86
2022-12-31T05:37:30.128Z,91.85
2022-12-31T05:39:58.357Z,91.89
2022-12-31T05:42:27.117Z,91.82
2022-12-31T05:44:55.443Z,91.78
2022-12-31T05:47:23.812Z,91.82
2022-12-31T05:49:51.750Z,91.75
2022-12-31T05:52:20.367Z,91.74
2022-12-31T05:54:48.104Z,91.64
2022-12-31T05:57:15.837Z,91.62
2022-12-31T05:59:43.488Z,91.51
2022-12-31T06:02:11.205Z,91.42
2022-12-31T06:04:38.860Z,91.37
2022-12-31T06:07:06.588Z,91.24
2022-12-31T06:09:34.332Z,91.14
2022-12-31T06:12:02.124Z,90.89
2022-12-31T06:14:29.889Z,90.70
2022-12-31T06:16:58.249Z,90.58
2022-12-31T06:19:26.108Z,90.55
2022-12-31T06:21:53.848Z,90.57
2022-12-31T06:24:21.621Z,90.67
2022-12-31T06:26:49.435Z,90.71
2022-12-31T06:29:17.365Z,90.60
2022-12-31T06:31:45.096Z,90.47
2022-12-31T06:34:12.905Z,90.25
2022-12-31T06:36:40.684Z,90.07
2022-12-31T06:39:08.523Z,89.89
2022-12-31T06:41:36.309Z,89.76
2022-12-31T06:44:04.220Z,89.46
2022-12-31T06:46:32.063Z,89.10
2022-12-31T06:48:59.770Z,89.07
2022-12-31T06:51:27.528Z,89.08
2022-12-31T06:53:55.255Z,89.08
2022-12-31T06:56:33.915Z,88.86
2022-12-31T06:59:05.009Z,88.81
2022-12-31T07:02:03.329Z,88.61
2022-12-31T07:05:23.908Z,88.45
2022-12-31T07:08:14.181Z,88.26
2022-12-31T07:11:09.388Z,88.24
2022-12-31T07:14:23.673Z,88.12
2022-12-31T07:17:12.969Z,88.26
2022-12-31T07:20:03.013Z,88.91
2022-12-31T07:22:31.193Z,89.66
2022-12-31T07:24:59.433Z,90.20
2022-12-31T07:28:14.703Z,90.50
2022-12-31T07:31:32.851Z,90.96
2022-12-31T07:34:15.455Z,91.13
2022-12-31T07:37:16.024Z,91.27
2022-12-31T07:40:02.150Z,91.33
2022-12-31T07:43:00.341Z,91.28
2022-12-31T07:45:42.184Z,91.34
2022-12-31T07:48:25.204Z,91.50
2022-12-31T07:50:55.897Z,91.65
2022-12-31T07:53:25.156Z,91.83
2022-12-31T07:56:00.439Z,91.72
2022-12-31T07:58:50.397Z,91.72
2022-12-31T08:01:33.442Z,91.73
2022-12-31T08:04:21.304Z,91.78
2022-12-31T08:07:22.546Z,91.79
2022-12-31T08:10:03.835Z,91.67
2022-12-31T08:12:37.740Z,91.64
2022-12-31T08:15:14.948Z,91.67
2022-12-31T08:17:43.570Z,91.65
2022-12-31T08:20:17.405Z,91.85
2022-12-31T08:22:59.002Z,91.83
2022-12-31T08:26:17.589Z,91.71
2022-12-31T08:29:19.184Z,91.77
2022-12-31T08:32:10.163Z,91.76
2022-12-31T08:35:06.068Z,91.78
2022-12-31T08:37:47.864Z,91.73
2022-12-31T08:40:39.954Z,91.61
2022-12-31T08:43:33.354Z,91.53
2022-12-31T08:46:01.586Z,91.39
2022-12-31T08:48:56.096Z,91.32
2022-12-31T08:51:26.838Z,91.27
2022-12-31T08:53:55.419Z,91.25
2022-12-31T08:56:36.292Z,91.18
2022-12-31T08:59:49.965Z,91.05
2022-12-31T09:02:51.623Z,91.08
2022-12-31T09:05:32.532Z,91.18
2022-12-31T09:08:29.508Z,91.11
2022-12-31T09:11:07.571Z,91.11
2022-12-31T09:13:59.717Z,91.00
2022-12-31T09:16:45.024Z,91.01
2022-12-31T09:19:13.059Z,90.90
2022-12-31T09:21:46.150Z,90.84
2022-12-31T09:24:16.110Z,90.83
2022-12-31T09:27:08.436Z,90.66
2022-12-31T09:29:57.170Z,90.52
2022-12-31T09:32:42.677Z,90.49
2022-12-31T09:35:30.420Z,90.41
2022-12-31T09:38:11.666Z,90.29
2022-12-31T09:41:16.895Z,90.16
2022-12-31T09:44:17.928Z,90.11
2022-12-31T09:47:18.824Z,90.05
2022-12-31T09:50:22.823Z,89.98
2022-12-31T09:53:44.574Z,89.97
2022-12-31T09:56:23.225Z,89.88
2022-12-31T09:59:10.228Z,89.86
2022-12-31T10:02:29.249Z,89.81
2022-12-31T10:05:18.884Z,89.61
2022-12-31T10:08:43.460Z,89.59
2022-12-31T10:11:31.164Z,89.38
2022-12-31T10:14:47.335Z,89.42
2022-12-31T10:18:01.975Z,89.41
2022-12-31T10:20:45.119Z,89.48
2022-12-31T10:23:34.657Z,89.41
2022-12-31T10:26:21.311Z,89.42
2022-12-31T10:29:26.939Z,89.43
2022-12-31T10:32:31.162Z,89.48
2022-12-31T10:35:36.161Z,89.61
2022-12-31T10:38:50.941Z,89.78
2022-12-31T10:41:52.438Z,89.89
2022-12-31T10:45:03.479Z,89.95
2022-12-31T10:48:19.976Z,90.06
2022-12-31T10:51:27.338Z,90.22
2022-12-31T10:54:37.444Z,90.41
2022-12-31T10:57:52.152Z,90.50
2022-12-31T11:00:22.696Z,90.64
2022-12-31T11:03:13.549Z,90.65
2022-12-31T11:06:16.401Z,90.62
2022-12-31T11:09:11.720Z,90.75
2022-12-31T11:11:53.887Z,90.85
2022-12-31T11:14:56.103Z,90.97
2022-12-31T11:17:47.205Z,91.00
2022-12-31T11:21:04.080Z,91.01
2022-12-31T11:24:15.384Z,91.10
2022-12-31T11:27:38.904Z,91.15
2022-12-31T11:30:37.017Z,91.37
2022-12-31T11:33:46.872Z,91.53
2022-12-31T11:36:59.696Z,91.56
2022-12-31T11:39:47.796Z,91.74
2022-12-31T11:42:51.010Z,91.81
2022-12-31T11:46:06.413Z,91.88
2022-12-31T11:49:12.174Z,91.92
2022-12-31T11:52:25.994Z,92.03
2022-12-31T11:55:19.316Z,92.08
2022-12-31T11:57:50.804Z,92.13
2022-12-31T12:00:25.847Z,92.14
2022-12-31T12:03:04.466Z,92.13
2022-12-31T12:05:36.371Z,92.09
2022-12-31T12:08:04.099Z,92.11
2022-12-31T12:10:57.211Z,92.13
2022-12-31T12:13:27.829Z,92.15
2022-12-31T12:16:03.354Z,92.14
2022-12-31T12:19:04.843Z,92.12
2022-12-31T12:21:34.115Z,92.13
2022-12-31T12:24:16.970Z,92.17
2022-12-31T12:26:45.589Z,92.11
2022-12-31T12:29:24.373Z,92.13
2022-12-31T12:32:15.112Z,92.17
2022-12-31T12:34:49.333Z,92.09
2022-12-31T12:37:34.373Z,92.12
2022-12-31T12:40:18.458Z,92.12
2022-12-31T12:42:52.670Z,92.13
2022-12-31T12:45:49.013Z,92.16
2022-12-31T12:48:32.640Z,92.19
2022-12-31T12:51:06.521Z,92.29
2022-12-31T12:54:03.120Z,92.27
2022-12-31T12:56:55.768Z,92.32
2022-12-31T13:00:08.679Z,92.28
2022-12-31T13:03:09.059Z,92.33
2022-12-31T13:05:57.967Z,92.33
2022-12-31T13:09:18.665Z,92.43
2022-12-31T13:12:14.033Z,92.39
2022-12-31T13:15:18.573Z,92.41
2022-12-31T13:18:01.294Z,92.49
2022-12-31T13:20:50.119Z,92.56
2022-12-31T13:23:39.705Z,92.70
2022-12-31T13:26:10.775Z,92.77
2022-12-31T13:28:42.937Z,92.77
2022-12-31T13:31:21.593Z,92.77
2022-12-31T13:34:01.139Z,92.85
2022-12-31T13:36:32.893Z,92.77
2022-12-31T13:39:15.515Z,92.70
2022-12-31T13:42:07.411Z,92.67
2022-12-31T13:44:56.255Z,92.66
2022-12-31T13:47:35.799Z,92.62
2022-12-31T13:50:33.701Z,92.59
2022-12-31T13:53:21.457Z,92.60
2022-12-31T13:55:58.721Z,92.58
2022-12-31T13:58:45.468Z,92.54
2022-12-31T14:01:22.365Z,92.49
2022-12-31T14:04:03.915Z,92.39
2022-12-31T14:07:04.643Z,92.33
2022-12-31T14:09:35.152Z,92.22
2022-12-31T14:12:18.250Z,92.23
2022-12-31T14:15:13.970Z,92.19
2022-12-31T14:18:04.109Z,92.20
2022-12-31T14:20:57.401Z,92.18
2022-12-31T14:23:46.044Z,92.11
2022-12-31T14:26:27.499Z,92.07
2022-12-31T14:29:39.407Z,92.06
2022-12-31T14:32:31.553Z,92.03
2022-12-31T14:35:32.406Z,92.01
2022-12-31T14:38:26.662Z,91.92
2022-12-31T14:41:28.579Z,91.88
2022-12-31T14:44:25.375Z,91.84
2022-12-31T14:47:11.249Z,91.76
2022-12-31T14:50:03.413Z,91.68
2022-12-31T14:52:34.300Z,91.70
2022-12-31T14:55:28.565Z,91.71
2022-12-31T14:58:27.024Z,91.71
2022-12-31T15:01:04.432Z,91.80
2022-12-31T15:03:32.546Z,91.81
2022-12-31T15:06:23.385Z,91.87
2022-12-31T15:09:12.154Z,91.86
2022-12-31T15:12:19.138Z,91.83
2022-12-31T15:15:19.994Z,91.78
2022-12-31T15:17:58.768Z,91.80
2022-12-31T15:20:51.257Z,91.77
2022-12-31T15:23:36.047Z,91.72
2022-12-31T15:26:06.752Z,91.74
2022-12-31T15:28:39.479Z,91.67
2022-12-31T15:31:18.052Z,91.70
2022-12-31T15:33:57.179Z,91.60
2022-12-31T15:36:39.345Z,91.60
2022-12-31T15:39:33.005Z,91.61
2022-12-31T15:42:36.676Z,91.59
2022-12-31T15:44:55.109Z,91.63
2022-12-31T15:47:32.454Z,91.64
2022-12-31T15:50:12.273Z,91.66
2022-12-31T15:52:46.555Z,91.66
2022-12-31T15:55:44.077Z,91.73
2022-12-31T15:58:22.445Z,91.80
2022-12-31T16:00:56.012Z,91.86
2022-12-31T16:03:29.668Z,91.85
2022-12-31T16:06:14.992Z,91.86
2022-12-31T16:08:49.231Z,91.95
2022-12-31T16:11:18.467Z,91.97
2022-12-31T16:13:52.568Z,92.07
2022-12-31T16:16:29.063Z,92.11
2022-12-31T16:18:58.901Z,92.16
2022-12-31T16:21:36.064Z,92.15
2022-12-31T16:24:28.844Z,92.16
2022-12-31T16:27:02.940Z,92.16
2022-12-31T16:29:30.954Z,92.15
2022-12-31T16:31:58.683Z,92.14
2022-12-31T16:34:28.254Z,92.18
2022-12-31T16:37:05.960Z,92.18
2022-12-31T16:39:38.795Z,92.22
2022-12-31T16:42:28.496Z,92.22
2022-12-31T16:44:58.004Z,92.25
2022-12-31T16:47:36.612Z,92.32
2022-12-31T16:50:16.515Z,92.37
2022-12-31T16:52:48.667Z,92.37
2022-12-31T16:55:24.465Z,92.37
2022-12-31T16:58:32.547Z,92.33
2022-12-31T17:01:17.773Z,92.31
2022-12-31T17:03:55.462Z,92.32
2022-12-31T17:06:24.323Z,92.30
2022-12-31T17:08:59.479Z,92.26
2022-12-31T17:11:33.401Z,92.28
2022-12-31T17:14:16.116Z,92.22
2022-12-31T17:17:06.934Z,92.19
2022-12-31T17:19:47.399Z,92.15
2022-12-31T17:22:35.823Z,92.14
2022-12-31T17:25:08.831Z,92.13
2022-12-31T17:27:36.966Z,92.10
2022-12-31T17:30:29.426Z,92.06
2022-12-31T17:33:24.710Z,91.99
2022-12-31T17:36:15.261Z,91.92
2022-12-31T17:38:43.331Z,91.93
2022-12-31T17:41:23.264Z,91.89
2022-12-31T17:43:54.955Z,91.81
2022-12-31T17:46:24.971Z,91.79
2022-12-31T17:49:02.963Z,91.86
2022-12-31T17:51:30.696Z,91.89
2022-12-31T17:54:00.458Z,91.89
2022-12-31T17:56:28.440Z,91.90
2022-12-31T17:58:56.143Z,91.87
2022-12-31T18:01:24.300Z,91.92
2022-12-31T18:03:52.227Z,91.90
2022-12-31T18:06:20.104Z,91.92
2022-12-31T18:08:47.910Z,91.94
2022-12-31T18:11:21.042Z,92.00
2022-12-31T18:13:49.603Z,92.00
2022-12-31T18:16:17.630Z,92.01
2022-12-31T18:18:45.768Z,92.01
2022-12-31T18:21:25.268Z,92.06
2022-12-31T18:26:24.061Z,92.02
2022-12-31T18:28:53.159Z,92.02
2022-12-31T18:31:29.557Z,92.00
2022-12-31T18:33:59.196Z,92.01
2022-12-31T18:36:28.767Z,91.98
2022-12-31T18:38:56.536Z,91.98
2022-12-31T18:41:45.674Z,92.00
2022-12-31T18:44:15.332Z,92.05
2022-12-31T18:46:43.377Z,92.08
2022-12-31T18:49:11.154Z,92.11
2022-12-31T18:51:38.847Z,92.11
2022-12-31T18:54:10.227Z,92.20
2022-12-31T18:56:43.212Z,92.20
2022-12-31T18:59:15.562Z,92.33
2022-12-31T19:01:43.479Z,92.34
2022-12-31T19:04:27.139Z,92.37
2022-12-31T19:06:56.662Z,92.43
2022-12-31T19:09:44.669Z,92.47
2022-12-31T19:12:14.612Z,92.60
2022-12-31T19:14:42.784Z,92.63
2022-12-31T19:19:37.154Z,92.65
2022-12-31T19:22:04.826Z,92.69
2022-12-31T19:24:32.554Z,92.69
2022-12-31T19:27:01.254Z,92.71
2022-12-31T19:29:29.104Z,92.70
2022-12-31T19:31:58.186Z,92.63
2022-12-31T19:34:26.061Z,92.63
2022-12-31T19:36:53.743Z,92.61
2022-12-31T19:39:21.675Z,92.55
2022-12-31T19:41:56.564Z,92.58
2022-12-31T19:44:26.924Z,92.45
2022-12-31T19:46:54.682Z,92.37
2022-12-31T19:49:23.885Z,92.31
2022-12-31T19:51:51.646Z,92.27
2022-12-31T19:54:19.503Z,92.20
2022-12-31T19:56:47.178Z,92.08
2022-12-31T19:59:14.893Z,91.96
2022-12-31T20:01:42.742Z,92.03
2022-12-31T20:04:10.496Z,92.02
2022-12-31T20:06:38.255Z,92.02
2022-12-31T20:09:05.918Z,92.00
2022-12-31T20:11:33.611Z,91.89
2022-12-31T20:14:01.303Z,91.81
2022-12-31T20:16:33.655Z,91.79
2022-12-31T20:19:01.526Z,91.75
2022-12-31T20:21:29.812Z,91.65
2022-12-31T20:23:57.542Z,91.56
2022-12-31T20:26:25.845Z,91.58
2022-12-31T20:28:53.944Z,91.50
2022-12-31T20:31:25.143Z,91.41
2022-12-31T20:33:54.346Z,91.28
2022-12-31T20:36:23.419Z,91.30
2022-12-31T20:38:51.535Z,91.28
2022-12-31T20:41:22.685Z,91.20
2022-12-31T20:43:51.485Z,90.98
2022-12-31T20:46:25.087Z,90.93
2022-12-31T20:48:56.314Z,90.64
2022-12-31T20:51:26.387Z,90.30
2022-12-31T20:53:58.488Z,90.18
2022-12-31T20:56:29.585Z,89.79
2022-12-31T20:58:58.058Z,89.37
2022-12-31T21:01:36.300Z,89.39
2022-12-31T21:04:14.652Z,89.33
2022-12-31T21:06:42.541Z,88.87
2022-12-31T21:09:10.606Z,88.73
2022-12-31T21:11:57.169Z,88.77
2022-12-31T21:14:24.964Z,89.07
2022-12-31T21:16:52.748Z,89.05
2022-12-31T21:19:20.626Z,89.23
2022-12-31T21:21:49.715Z,88.75
2022-12-31T21:24:23.294Z,88.49
2022-12-31T21:26:55.786Z,87.83
2022-12-31T21:29:23.590Z,87.70
2022-12-31T21:31:51.535Z,87.56
2022-12-31T21:34:19.301Z,87.41
2022-12-31T21:36:47.193Z,87.34
2022-12-31T21:39:15.351Z,87.04
2022-12-31T21:41:51.953Z,87.19
2022-12-31T21:44:25.704Z,87.41
2022-12-31T21:47:34.853Z,87.70
2022-12-31T21:50:04.693Z,88.04
2022-12-31T21:52:33.908Z,88.38
2022-12-31T21:55:23.072Z,88.57
2022-12-31T22:00:58.449Z,88.66
2022-12-31T22:03:29.634Z,88.23
2022-12-31T22:06:02.875Z,88.02
2022-12-31T22:08:31.517Z,88.16
2022-12-31T22:10:59.258Z,88.14
2022-12-31T22:13:26.997Z,87.89
2022-12-31T22:16:04.200Z,87.87
2022-12-31T22:18:38.731Z,87.93
2022-12-31T22:21:19.937Z,87.93
2022-12-31T22:23:51.931Z,87.96
2022-12-31T22:26:22.381Z,87.98
2022-12-31T22:28:51.341Z,87.71
2022-12-31T22:31:24.329Z,87.78
2022-12-31T22:33:53.390Z,87.75
2022-12-31T22:36:23.538Z,87.91
2022-12-31T22:38:57.266Z,87.62
2022-12-31T22:41:27.462Z,87.53
2022-12-31T22:44:04.741Z,87.23
2022-12-31T22:46:34.295Z,87.37
2022-12-31T22:49:04.243Z,87.54
2022-12-31T22:51:57.578Z,87.66
2022-12-31T22:54:20.705Z,87.82
2022-12-31T22:56:48.490Z,87.79
2022-12-31T22:59:16.207Z,87.96
2022-12-31T23:01:43.921Z,87.98
2022-12-31T23:04:12.156Z,87.76
2022-12-31T23:06:46.168Z,87.66
2022-12-31T23:09:35.555Z,87.41
2022-12-31T23:12:07.096Z,87.80
2022-12-31T23:14:53.711Z,87.83
2022-12-31T23:17:45.750Z,87.99
2022-12-31T23:20:41.263Z,87.89
2022-12-31T23:23:15.855Z,87.51
2022-12-31T23:25:48.622Z,87.86
2022-12-31T23:28:24.227Z,87.92
2022-12-31T23:30:52.686Z,88.11
2022-12-31T23:33:29.252Z,88.44
2022-12-31T23:36:06.038Z,88.88
2022-12-31T23:38:33.759Z,89.06
2022-12-31T23:41:11.524Z,89.24
2022-12-31T23:43:39.253Z,89.78
2022-12-31T23:46:09.343Z,89.97
2022-12-31T23:48:37.217Z,90.36
2022-12-31T23:51:05.372Z,90.59
2022-12-31T23:53:33.363Z,90.65
2022-12-31T23:56:16.281Z,90.65
2022-12-31T23:58:48.841Z,90.55
